PWSweather.com
Personal Weather Stations
Station Observations
GRD01
Warsaw, LesznoPL 05-084

WarsawLesznoPL 05-084

Lat: 52.257404, Lon: 20.564847

Elevation: 298

Station Type: WH3080

http://pogoda.kampinos.waw.pl

High Low Average
Temperature 67.6°F19.8°C 53.2°F11.8°C 59.6°F15.3°C
Dew Point 58.8°F14.9°C 48.3°F9.1°C 51.4°F10.8°C
Winds 12.1 mph 19.5 kmh 0.7 mph 1.1 kmh 5.0 mph S8.0 kmh S
Wind Gusts 22.1 mph35.6 kmh 2.2 mph3.5 kmh 11.0 mph17.7 kmh
Humidity 93% 53% 75%
Pressure 30.63 in1037.3 mb 30.31 in1026.4 mb -
Precipitation 0.09 in2.3 mm - -
Hour Temp Dew Point Humidity Winds Wind Gusts Pressure Precip Precip Rate Daily Precip Total
12:00 AM 61.2°F16.2°C 58.8°F14.9°C 92% 2.2 mph S3.5 kmh S 9.8 mph15.8 kmh 30.32 in1026.8 mb 0.04 in1.0 mm 0.00 in0.0 mm 0.04 in1.0 mm
12:10 AM 61.2°F16.2°C 58.8°F14.9°C 92% 6.0 mph NE9.7 kmh NE 8.3 mph13.4 kmh 29.87 in1011.5 mb 0.04 in1.0 mm 0.00 in0.0 mm 0.05 in1.3 mm
12:15 AM 60.8°F16.0°C 58.8°F14.9°C 93% 3.8 mph WSW6.1 kmh WSW 10.7 mph17.2 kmh 30.31 in1026.4 mb 0.06 in1.5 mm 0.24 in6.1 mm 0.07 in1.8 mm
12:30 AM 60.3°F15.7°C 58.2°F14.6°C 93% 6.9 mph S11.1 kmh S 15.9 mph25.6 kmh 30.31 in1026.4 mb 0.05 in1.3 mm 0.00 in0.0 mm 0.08 in2.0 mm
12:40 AM 60.3°F15.7°C 58.2°F14.6°C 93% 6.0 mph N9.7 kmh N 10.7 mph17.2 kmh 29.88 in1011.9 mb 0.05 in1.3 mm 0.00 in0.0 mm 0.09 in2.3 mm
12:45 AM 59.0°F15.0°C 56.7°F13.7°C 92% 3.1 mph SSW5.0 kmh SSW 11.4 mph18.3 kmh 30.32 in1026.8 mb 0.05 in1.3 mm 0.00 in0.0 mm 0.08 in2.0 mm
01:00 AM 58.6°F14.8°C 56.0°F13.3°C 91% 6.9 mph SW11.1 kmh SW 9.8 mph15.8 kmh 30.32 in1026.8 mb 0.05 in1.3 mm 0.00 in0.0 mm 0.08 in2.0 mm
01:10 AM 58.5°F14.7°C 55.8°F13.2°C 91% 2.2 mph NE3.5 kmh NE 4.5 mph7.2 kmh 29.88 in1011.9 mb 0.05 in1.3 mm 0.00 in0.0 mm 0.09 in2.3 mm
01:15 AM 58.3°F14.6°C 55.7°F13.2°C 91% 2.2 mph NW3.5 kmh NW 6.0 mph9.7 kmh 30.32 in1026.8 mb 0.01 in0.3 mm 0.00 in0.0 mm 0.08 in2.0 mm
01:30 AM 57.7°F14.3°C 54.8°F12.7°C 90% 1.6 mph E2.6 kmh E 4.5 mph7.2 kmh 30.33 in1027.1 mb 0.00 in0.0 mm 0.00 in0.0 mm 0.08 in2.0 mm
01:40 AM 57.7°F14.3°C 54.8°F12.7°C 90% 0.7 mph E1.1 kmh E 2.2 mph3.5 kmh 29.88 in1011.9 mb 0.00 in0.0 mm 0.00 in0.0 mm 0.09 in2.3 mm
01:45 AM 57.2°F14.0°C 54.3°F12.4°C 90% 3.1 mph S5.0 kmh S 5.4 mph8.7 kmh 30.32 in1026.8 mb 0.00 in0.0 mm 0.00 in0.0 mm 0.08 in2.0 mm
02:00 AM 56.8°F13.8°C 53.9°F12.2°C 90% 3.1 mph S5.0 kmh S 5.4 mph8.7 kmh 30.32 in1026.8 mb 0.00 in0.0 mm 0.00 in0.0 mm 0.08 in2.0 mm
02:10 AM 56.8°F13.8°C 53.9°F12.2°C 90% 3.8 mph S6.1 kmh S 5.4 mph8.7 kmh 29.88 in1011.9 mb 0.00 in0.0 mm 0.00 in0.0 mm 0.09 in2.3 mm
02:15 AM 56.7°F13.7°C 54.1°F12.3°C 91% 3.8 mph S6.1 kmh S 6.9 mph11.1 kmh 30.32 in1026.8 mb 0.00 in0.0 mm 0.00 in0.0 mm 0.08 in2.0 mm
02:30 AM 56.5°F13.6°C 53.9°F12.2°C 91% 6.9 mph SE11.1 kmh SE 9.8 mph15.8 kmh 30.32 in1026.8 mb 0.00 in0.0 mm 0.00 in0.0 mm 0.08 in2.0 mm
02:40 AM 56.5°F13.6°C 53.9°F12.2°C 91% 5.4 mph N8.7 kmh N 7.6 mph12.2 kmh 29.88 in1011.9 mb 0.00 in0.0 mm 0.00 in0.0 mm 0.09 in2.3 mm
02:45 AM 56.5°F13.6°C 54.2°F12.3°C 92% 4.5 mph S7.2 kmh S 10.7 mph17.2 kmh 30.32 in1026.8 mb 0.00 in0.0 mm 0.00 in0.0 mm 0.08 in2.0 mm
03:00 AM 56.3°F13.5°C 53.7°F12.1°C 91% 6.9 mph SSE11.1 kmh SSE 12.1 mph19.5 kmh 30.33 in1027.1 mb 0.00 in0.0 mm 0.00 in0.0 mm 0.08 in2.0 mm
03:10 AM 56.3°F13.5°C 53.7°F12.1°C 91% 6.9 mph S11.1 kmh S 9.8 mph15.8 kmh 29.89 in1012.2 mb 0.00 in0.0 mm 0.00 in0.0 mm 0.09 in2.3 mm
03:15 AM 56.1°F13.4°C 53.5°F11.9°C 91% 5.4 mph S8.7 kmh S 10.7 mph17.2 kmh 30.33 in1027.1 mb 0.00 in0.0 mm 0.00 in0.0 mm 0.08 in2.0 mm
03:30 AM 56.1°F13.4°C 53.2°F11.8°C 90% 5.4 mph SSW8.7 kmh SSW 10.7 mph17.2 kmh 30.34 in1027.4 mb 0.00 in0.0 mm 0.00 in0.0 mm 0.08 in2.0 mm
03:40 AM 56.1°F13.4°C 53.2°F11.8°C 90% 6.9 mph W11.1 kmh W 9.8 mph15.8 kmh 29.90 in1012.5 mb 0.00 in0.0 mm 0.00 in0.0 mm 0.09 in2.3 mm
03:45 AM 56.1°F13.4°C 53.2°F11.8°C 90% 8.3 mph S13.4 kmh S 11.4 mph18.3 kmh 30.34 in1027.4 mb 0.00 in0.0 mm 0.00 in0.0 mm 0.08 in2.0 mm
04:00 AM 56.5°F13.6°C 53.6°F12.0°C 90% 7.6 mph S12.2 kmh S 14.5 mph23.3 kmh 30.35 in1027.8 mb 0.00 in0.0 mm 0.00 in0.0 mm 0.08 in2.0 mm
04:10 AM 56.5°F13.6°C 53.6°F12.0°C 90% 8.3 mph S13.4 kmh S 10.7 mph17.2 kmh 29.90 in1012.5 mb 0.00 in0.0 mm 0.00 in0.0 mm 0.09 in2.3 mm
04:15 AM 56.7°F13.7°C 53.5°F11.9°C 89% 3.1 mph S5.0 kmh S 13.0 mph20.9 kmh 30.35 in1027.8 mb 0.00 in0.0 mm 0.00 in0.0 mm 0.08 in2.0 mm
04:30 AM 56.8°F13.8°C 52.7°F11.5°C 86% 3.8 mph SW6.1 kmh SW 16.8 mph27.0 kmh 30.36 in1028.1 mb 0.00 in0.0 mm 0.00 in0.0 mm 0.08 in2.0 mm
04:40 AM 56.8°F13.8°C 52.7°F11.5°C 86% 5.4 mph SE8.7 kmh SE 9.8 mph15.8 kmh 29.91 in1012.9 mb 0.00 in0.0 mm 0.00 in0.0 mm 0.09 in2.3 mm
04:45 AM 56.5°F13.6°C 51.7°F10.9°C 84% 9.2 mph SSE14.8 kmh SSE 13.6 mph21.9 kmh 30.35 in1027.8 mb 0.00 in0.0 mm 0.00 in0.0 mm 0.08 in2.0 mm
05:00 AM 56.1°F13.4°C 51.0°F10.6°C 83% 4.5 mph S7.2 kmh S 13.6 mph21.9 kmh 30.36 in1028.1 mb 0.00 in0.0 mm 0.00 in0.0 mm 0.08 in2.0 mm
05:10 AM 56.1°F13.4°C 51.0°F10.6°C 83% 4.5 mph S7.2 kmh S 10.7 mph17.2 kmh 29.92 in1013.2 mb 0.00 in0.0 mm 0.00 in0.0 mm 0.09 in2.3 mm
05:15 AM 56.1°F13.4°C 51.0°F10.6°C 83% 6.0 mph SE9.7 kmh SE 13.0 mph20.9 kmh 30.35 in1027.8 mb 0.00 in0.0 mm 0.00 in0.0 mm 0.08 in2.0 mm
05:30 AM 55.8°F13.2°C 50.3°F10.2°C 82% 8.3 mph SE13.4 kmh SE 13.0 mph20.9 kmh 30.36 in1028.1 mb 0.00 in0.0 mm 0.00 in0.0 mm 0.08 in2.0 mm
05:40 AM 55.6°F13.1°C 50.2°F10.1°C 82% 3.1 mph N5.0 kmh N 5.4 mph8.7 kmh 29.92 in1013.2 mb 0.00 in0.0 mm 0.00 in0.0 mm 0.09 in2.3 mm
05:45 AM 55.6°F13.1°C 50.2°F10.1°C 82% 9.8 mph SSE15.8 kmh SSE 15.9 mph25.6 kmh 30.36 in1028.1 mb 0.00 in0.0 mm 0.00 in0.0 mm 0.08 in2.0 mm
06:00 AM 55.9°F13.3°C 50.5°F10.3°C 82% 6.9 mph SSW11.1 kmh SSW 15.9 mph25.6 kmh 30.37 in1028.4 mb 0.00 in0.0 mm 0.00 in0.0 mm 0.08 in2.0 mm
06:10 AM 55.9°F13.3°C 50.5°F10.3°C 82% 7.6 mph NE12.2 kmh NE 10.7 mph17.2 kmh 29.93 in1013.5 mb 0.00 in0.0 mm 0.00 in0.0 mm 0.09 in2.3 mm
06:15 AM 56.3°F13.5°C 50.5°F10.3°C 81% 5.4 mph SW8.7 kmh SW 19.0 mph30.6 kmh 30.38 in1028.8 mb 0.00 in0.0 mm 0.00 in0.0 mm 0.08 in2.0 mm
06:30 AM 56.7°F13.7°C 50.9°F10.5°C 81% 4.5 mph E7.2 kmh E 14.5 mph23.3 kmh 30.38 in1028.8 mb 0.00 in0.0 mm 0.00 in0.0 mm 0.08 in2.0 mm
06:40 AM 56.7°F13.7°C 50.9°F10.5°C 81% 6.0 mph SW9.7 kmh SW 8.3 mph13.4 kmh 29.93 in1013.5 mb 0.00 in0.0 mm 0.00 in0.0 mm 0.09 in2.3 mm
06:45 AM 57.0°F13.9°C 51.2°F10.7°C 81% 5.4 mph SE8.7 kmh SE 11.4 mph18.3 kmh 30.38 in1028.8 mb 0.00 in0.0 mm 0.00 in0.0 mm 0.08 in2.0 mm
07:00 AM 57.4°F14.1°C 51.6°F10.9°C 81% 5.4 mph NE8.7 kmh NE 10.7 mph17.2 kmh 30.38 in1028.8 mb 0.00 in0.0 mm 0.00 in0.0 mm 0.08 in2.0 mm
07:10 AM 57.4°F14.1°C 51.6°F10.9°C 81% 5.4 mph NE8.7 kmh NE 9.2 mph14.8 kmh 29.94 in1013.9 mb 0.00 in0.0 mm 0.00 in0.0 mm 0.09 in2.3 mm
07:15 AM 57.6°F14.2°C 51.8°F11.0°C 81% 3.8 mph S6.1 kmh S 13.6 mph21.9 kmh 30.40 in1029.5 mb 0.00 in0.0 mm 0.00 in0.0 mm 0.08 in2.0 mm
07:30 AM 57.7°F14.3°C 51.9°F11.1°C 81% 7.6 mph S12.2 kmh S 12.1 mph19.5 kmh 30.41 in1029.8 mb 0.01 in0.3 mm 0.04 in1.0 mm 0.09 in2.3 mm
07:40 AM 57.7°F14.3°C 51.6°F10.9°C 80% 8.3 mph NW13.4 kmh NW 12.1 mph19.5 kmh 29.95 in1014.2 mb 0.01 in0.3 mm 0.00 in0.0 mm 0.11 in2.8 mm
07:45 AM 57.7°F14.3°C 51.9°F11.1°C 81% 5.4 mph SW8.7 kmh SW 16.8 mph27.0 kmh 30.41 in1029.8 mb 0.01 in0.3 mm 0.00 in0.0 mm 0.09 in2.3 mm
08:00 AM 57.9°F14.4°C 51.8°F11.0°C 80% 6.9 mph WNW11.1 kmh WNW 15.2 mph24.5 kmh 30.42 in1030.1 mb 0.01 in0.3 mm 0.00 in0.0 mm 0.09 in2.3 mm
08:10 AM 57.9°F14.4°C 51.8°F11.0°C 80% 6.9 mph SW11.1 kmh SW 13.0 mph20.9 kmh 29.97 in1014.9 mb 0.01 in0.3 mm 0.00 in0.0 mm 0.11 in2.8 mm
08:15 AM 57.9°F14.4°C 52.1°F11.2°C 81% 6.0 mph W9.7 kmh W 21.3 mph34.3 kmh 30.43 in1030.5 mb 0.01 in0.3 mm 0.00 in0.0 mm 0.09 in2.3 mm
08:30 AM 58.3°F14.6°C 52.1°F11.2°C 80% 6.9 mph SW11.1 kmh SW 18.3 mph29.5 kmh 30.43 in1030.5 mb 0.00 in0.0 mm 0.00 in0.0 mm 0.09 in2.3 mm
08:40 AM 58.3°F14.6°C 52.1°F11.2°C 80% 9.8 mph E15.8 kmh E 18.3 mph29.5 kmh 29.99 in1015.6 mb 0.00 in0.0 mm 0.00 in0.0 mm 0.11 in2.8 mm
08:45 AM 58.3°F14.6°C 52.1°F11.2°C 80% 6.9 mph SSW11.1 kmh SSW 22.1 mph35.6 kmh 30.43 in1030.5 mb 0.00 in0.0 mm 0.00 in0.0 mm 0.09 in2.3 mm
09:00 AM 58.3°F14.6°C 52.1°F11.2°C 80% 9.8 mph SSW15.8 kmh SSW 18.3 mph29.5 kmh 30.44 in1030.8 mb 0.00 in0.0 mm 0.00 in0.0 mm 0.09 in2.3 mm
09:10 AM 58.3°F14.6°C 52.1°F11.2°C 80% 5.4 mph NE8.7 kmh NE 8.3 mph13.4 kmh 30.00 in1015.9 mb 0.00 in0.0 mm 0.00 in0.0 mm 0.11 in2.8 mm
09:15 AM 58.6°F14.8°C 52.1°F11.2°C 79% 6.0 mph S9.7 kmh S 15.2 mph24.5 kmh 30.44 in1030.8 mb 0.00 in0.0 mm 0.00 in0.0 mm 0.09 in2.3 mm
09:30 AM 58.8°F14.9°C 51.3°F10.7°C 76% 3.1 mph S5.0 kmh S 13.6 mph21.9 kmh 30.45 in1031.2 mb 0.00 in0.0 mm 0.00 in0.0 mm 0.09 in2.3 mm
09:40 AM 58.8°F14.9°C 51.6°F10.9°C 77% 8.3 mph SE13.4 kmh SE 14.5 mph23.3 kmh 30.01 in1016.3 mb 0.00 in0.0 mm 0.00 in0.0 mm 0.11 in2.8 mm
09:45 AM 59.0°F15.0°C 51.8°F11.0°C 77% 7.6 mph SW12.2 kmh SW 16.8 mph27.0 kmh 30.46 in1031.5 mb 0.00 in0.0 mm 0.00 in0.0 mm 0.09 in2.3 mm
10:00 AM 59.4°F15.2°C 51.8°F11.0°C 76% 6.0 mph SW9.7 kmh SW 13.0 mph20.9 kmh 30.47 in1031.8 mb 0.00 in0.0 mm 0.00 in0.0 mm 0.09 in2.3 mm
10:10 AM 59.4°F15.2°C 51.8°F11.0°C 76% 6.0 mph SE9.7 kmh SE 12.1 mph19.5 kmh 30.02 in1016.6 mb 0.00 in0.0 mm 0.00 in0.0 mm 0.11 in2.8 mm
10:15 AM 60.1°F15.6°C 51.8°F11.0°C 74% 6.0 mph SW9.7 kmh SW 18.3 mph29.5 kmh 30.47 in1031.8 mb 0.00 in0.0 mm 0.00 in0.0 mm 0.09 in2.3 mm
10:30 AM 60.4°F15.8°C 51.7°F10.9°C 73% 6.0 mph SSW9.7 kmh SSW 17.4 mph28.0 kmh 30.48 in1032.2 mb 0.00 in0.0 mm 0.00 in0.0 mm 0.09 in2.3 mm
10:40 AM 60.4°F15.8°C 51.7°F10.9°C 73% 7.6 mph E12.2 kmh E 12.1 mph19.5 kmh 30.04 in1017.3 mb 0.00 in0.0 mm 0.00 in0.0 mm 0.11 in2.8 mm
10:45 AM 60.6°F15.9°C 51.9°F11.1°C 73% 6.9 mph SSW11.1 kmh SSW 20.6 mph33.2 kmh 30.49 in1032.5 mb 0.00 in0.0 mm 0.00 in0.0 mm 0.09 in2.3 mm
11:00 AM 60.4°F15.8°C 51.7°F10.9°C 73% 6.0 mph SW9.7 kmh SW 21.3 mph34.3 kmh 30.49 in1032.5 mb 0.00 in0.0 mm 0.00 in0.0 mm 0.09 in2.3 mm
11:10 AM 60.3°F15.7°C 51.6°F10.9°C 73% 3.8 mph S6.1 kmh S 6.0 mph9.7 kmh 30.05 in1017.6 mb 0.00 in0.0 mm 0.00 in0.0 mm 0.11 in2.8 mm
11:15 AM 60.4°F15.8°C 51.7°F10.9°C 73% 4.5 mph S7.2 kmh S 17.4 mph28.0 kmh 30.50 in1032.8 mb 0.00 in0.0 mm 0.00 in0.0 mm 0.09 in2.3 mm
11:30 AM 60.6°F15.9°C 51.9°F11.1°C 73% 11.4 mph SSE18.3 kmh SSE 16.8 mph27.0 kmh 30.50 in1032.8 mb 0.00 in0.0 mm 0.00 in0.0 mm 0.09 in2.3 mm
11:40 AM 60.6°F15.9°C 51.9°F11.1°C 73% 9.8 mph SW15.8 kmh SW 16.8 mph27.0 kmh 30.06 in1017.9 mb 0.00 in0.0 mm 0.00 in0.0 mm 0.11 in2.8 mm
11:45 AM 61.3°F16.3°C 52.2°F11.2°C 72% 5.4 mph S8.7 kmh S 11.4 mph18.3 kmh 30.50 in1032.8 mb 0.00 in0.0 mm 0.00 in0.0 mm 0.09 in2.3 mm
12:00 PM 62.4°F16.9°C 52.5°F11.4°C 70% 9.2 mph WSW14.8 kmh WSW 16.8 mph27.0 kmh 30.51 in1033.2 mb 0.00 in0.0 mm 0.00 in0.0 mm 0.09 in2.3 mm
12:10 PM 62.4°F16.9°C 52.5°F11.4°C 70% 12.1 mph SW19.5 kmh SW 18.3 mph29.5 kmh 30.07 in1018.3 mb 0.00 in0.0 mm 0.00 in0.0 mm 0.11 in2.8 mm
12:15 PM 62.2°F16.8°C 52.3°F11.3°C 70% 6.0 mph S9.7 kmh S 22.1 mph35.6 kmh 30.51 in1033.2 mb 0.00 in0.0 mm 0.00 in0.0 mm 0.09 in2.3 mm
12:30 PM 62.2°F16.8°C 52.3°F11.3°C 70% 11.4 mph SW18.3 kmh SW 19.0 mph30.6 kmh 30.52 in1033.5 mb 0.00 in0.0 mm 0.00 in0.0 mm 0.09 in2.3 mm
12:40 PM 62.2°F16.8°C 52.3°F11.3°C 70% 9.2 mph SE14.8 kmh SE 19.0 mph30.6 kmh 30.07 in1018.3 mb 0.00 in0.0 mm 0.00 in0.0 mm 0.11 in2.8 mm
12:45 PM 62.6°F17.0°C 52.7°F11.5°C 70% 7.6 mph S12.2 kmh S 14.5 mph23.3 kmh 30.52 in1033.5 mb 0.00 in0.0 mm 0.00 in0.0 mm 0.09 in2.3 mm
01:00 PM 62.8°F17.1°C 52.8°F11.6°C 70% 9.2 mph SW14.8 kmh SW 16.8 mph27.0 kmh 30.53 in1033.9 mb 0.00 in0.0 mm 0.00 in0.0 mm 0.09 in2.3 mm
01:10 PM 62.8°F17.1°C 52.8°F11.6°C 70% 9.2 mph SW14.8 kmh SW 11.4 mph18.3 kmh 30.08 in1018.6 mb 0.00 in0.0 mm 0.00 in0.0 mm 0.11 in2.8 mm
01:15 PM 64.4°F18.0°C 50.7°F10.4°C 61% 10.7 mph S17.2 kmh S 18.3 mph29.5 kmh 30.52 in1033.5 mb 0.00 in0.0 mm 0.00 in0.0 mm 0.09 in2.3 mm
01:30 PM 65.7°F18.7°C 50.5°F10.3°C 58% 5.4 mph S8.7 kmh S 15.2 mph24.5 kmh 30.52 in1033.5 mb 0.00 in0.0 mm 0.00 in0.0 mm 0.09 in2.3 mm
01:40 PM 65.7°F18.7°C 50.5°F10.3°C 58% 5.4 mph SW8.7 kmh SW 9.8 mph15.8 kmh 30.09 in1019.0 mb 0.00 in0.0 mm 0.00 in0.0 mm 0.11 in2.8 mm
01:45 PM 66.2°F19.0°C 51.0°F10.6°C 58% 3.8 mph SW6.1 kmh SW 18.3 mph29.5 kmh 30.53 in1033.9 mb 0.00 in0.0 mm 0.00 in0.0 mm 0.09 in2.3 mm
02:00 PM 66.9°F19.4°C 50.7°F10.4°C 56% 12.1 mph SW19.5 kmh SW 16.8 mph27.0 kmh 30.54 in1034.2 mb 0.00 in0.0 mm 0.00 in0.0 mm 0.09 in2.3 mm
02:10 PM 67.1°F19.5°C 50.9°F10.5°C 56% 4.5 mph SE7.2 kmh SE 6.9 mph11.1 kmh 30.08 in1018.6 mb 0.00 in0.0 mm 0.00 in0.0 mm 0.11 in2.8 mm
02:15 PM 67.3°F19.6°C 51.0°F10.6°C 56% 6.0 mph SSW9.7 kmh SSW 17.4 mph28.0 kmh 30.54 in1034.2 mb 0.00 in0.0 mm 0.00 in0.0 mm 0.09 in2.3 mm
02:30 PM 67.3°F19.6°C 50.1°F10.1°C 54% 9.2 mph S14.8 kmh S 17.4 mph28.0 kmh 30.54 in1034.2 mb 0.00 in0.0 mm 0.00 in0.0 mm 0.09 in2.3 mm
02:40 PM 67.3°F19.6°C 50.1°F10.1°C 54% 9.2 mph S14.8 kmh S 15.2 mph24.5 kmh 30.10 in1019.3 mb 0.00 in0.0 mm 0.00 in0.0 mm 0.11 in2.8 mm
02:45 PM 67.1°F19.5°C 50.4°F10.2°C 55% 9.8 mph S15.8 kmh S 15.2 mph24.5 kmh 30.55 in1034.5 mb 0.00 in0.0 mm 0.00 in0.0 mm 0.09 in2.3 mm
03:00 PM 67.3°F19.6°C 50.6°F10.3°C 55% 3.1 mph SW5.0 kmh SW 13.6 mph21.9 kmh 30.55 in1034.5 mb 0.00 in0.0 mm 0.00 in0.0 mm 0.09 in2.3 mm
03:10 PM 67.3°F19.6°C 51.0°F10.6°C 56% 4.5 mph S7.2 kmh S 8.3 mph13.4 kmh 30.10 in1019.3 mb 0.00 in0.0 mm 0.00 in0.0 mm 0.11 in2.8 mm
03:15 PM 67.5°F19.7°C 51.2°F10.7°C 56% 6.0 mph SW9.7 kmh SW 13.0 mph20.9 kmh 30.54 in1034.2 mb 0.00 in0.0 mm 0.00 in0.0 mm 0.09 in2.3 mm
03:30 PM 67.5°F19.7°C 50.7°F10.4°C 55% 6.9 mph SW11.1 kmh SW 12.1 mph19.5 kmh 30.54 in1034.2 mb 0.00 in0.0 mm 0.00 in0.0 mm 0.09 in2.3 mm
03:40 PM 67.5°F19.7°C 51.2°F10.7°C 56% 3.1 mph SE5.0 kmh SE 3.8 mph6.1 kmh 30.10 in1019.3 mb 0.00 in0.0 mm 0.00 in0.0 mm 0.11 in2.8 mm
03:45 PM 67.6°F19.8°C 50.4°F10.2°C 54% 3.8 mph SSW6.1 kmh SSW 14.5 mph23.3 kmh 30.54 in1034.2 mb 0.00 in0.0 mm 0.00 in0.0 mm 0.09 in2.3 mm
04:00 PM 67.5°F19.7°C 50.7°F10.4°C 55% 3.8 mph S6.1 kmh S 13.0 mph20.9 kmh 30.55 in1034.5 mb 0.00 in0.0 mm 0.00 in0.0 mm 0.09 in2.3 mm
04:10 PM 67.3°F19.6°C 50.6°F10.3°C 55% 5.4 mph S8.7 kmh S 8.3 mph13.4 kmh 30.10 in1019.3 mb 0.00 in0.0 mm 0.00 in0.0 mm 0.11 in2.8 mm
04:15 PM 67.1°F19.5°C 50.9°F10.5°C 56% 3.1 mph S5.0 kmh S 9.2 mph14.8 kmh 30.55 in1034.5 mb 0.00 in0.0 mm 0.00 in0.0 mm 0.09 in2.3 mm
04:30 PM 67.1°F19.5°C 49.4°F9.7°C 53% 6.9 mph S11.1 kmh S 15.9 mph25.6 kmh 30.55 in1034.5 mb 0.00 in0.0 mm 0.00 in0.0 mm 0.09 in2.3 mm
04:40 PM 67.1°F19.5°C 49.4°F9.7°C 53% 6.9 mph NE11.1 kmh NE 10.7 mph17.2 kmh 30.10 in1019.3 mb 0.00 in0.0 mm 0.00 in0.0 mm 0.11 in2.8 mm
04:45 PM 66.6°F19.2°C 48.9°F9.4°C 53% 3.1 mph S5.0 kmh S 13.6 mph21.9 kmh 30.55 in1034.5 mb 0.00 in0.0 mm 0.00 in0.0 mm 0.09 in2.3 mm
05:00 PM 65.8°F18.8°C 48.7°F9.3°C 54% 2.2 mph SSW3.5 kmh SSW 9.8 mph15.8 kmh 30.56 in1034.9 mb 0.00 in0.0 mm 0.00 in0.0 mm 0.09 in2.3 mm
05:10 PM 65.8°F18.8°C 48.7°F9.3°C 54% 2.2 mph S3.5 kmh S 3.1 mph5.0 kmh 30.11 in1019.6 mb 0.00 in0.0 mm 0.00 in0.0 mm 0.11 in2.8 mm
05:15 PM 64.9°F18.3°C 49.3°F9.6°C 57% 1.6 mph SW2.6 kmh SW 6.9 mph11.1 kmh 30.56 in1034.9 mb 0.00 in0.0 mm 0.00 in0.0 mm 0.09 in2.3 mm
05:30 PM 64.0°F17.8°C 49.9°F9.9°C 60% 1.6 mph S2.6 kmh S 4.5 mph7.2 kmh 30.57 in1035.2 mb 0.00 in0.0 mm 0.00 in0.0 mm 0.09 in2.3 mm
05:40 PM 63.9°F17.7°C 49.7°F9.8°C 60% 3.1 mph S5.0 kmh S 5.4 mph8.7 kmh 30.12 in1020.0 mb 0.00 in0.0 mm 0.00 in0.0 mm 0.11 in2.8 mm
05:45 PM 63.0°F17.2°C 50.6°F10.3°C 64% 1.6 mph S2.6 kmh S 3.1 mph5.0 kmh 30.57 in1035.2 mb 0.00 in0.0 mm 0.00 in0.0 mm 0.09 in2.3 mm
06:00 PM 61.9°F16.6°C 50.4°F10.2°C 66% 2.2 mph S3.5 kmh S 3.1 mph5.0 kmh 30.57 in1035.2 mb 0.00 in0.0 mm 0.00 in0.0 mm 0.09 in2.3 mm
06:10 PM 61.9°F16.6°C 50.4°F10.2°C 66% 2.2 mph S3.5 kmh S 3.1 mph5.0 kmh 30.14 in1020.7 mb 0.00 in0.0 mm 0.00 in0.0 mm 0.11 in2.8 mm
06:15 PM 60.6°F15.9°C 50.0°F10.0°C 68% 2.2 mph S3.5 kmh S 3.8 mph6.1 kmh 30.58 in1035.6 mb 0.00 in0.0 mm 0.00 in0.0 mm 0.09 in2.3 mm
06:30 PM 59.9°F15.5°C 50.1°F10.1°C 70% 0.7 mph S1.1 kmh S 3.8 mph6.1 kmh 30.58 in1035.6 mb 0.00 in0.0 mm 0.00 in0.0 mm 0.09 in2.3 mm
06:40 PM 59.7°F15.4°C 49.9°F9.9°C 70% 2.2 mph S3.5 kmh S 3.1 mph5.0 kmh 30.14 in1020.7 mb 0.00 in0.0 mm 0.00 in0.0 mm 0.11 in2.8 mm
06:45 PM 59.2°F15.1°C 49.4°F9.7°C 70% 2.2 mph SSE3.5 kmh SSE 3.8 mph6.1 kmh 30.59 in1035.9 mb 0.00 in0.0 mm 0.00 in0.0 mm 0.09 in2.3 mm
07:00 PM 59.0°F15.0°C 49.6°F9.8°C 71% 3.1 mph S5.0 kmh S 6.0 mph9.7 kmh 30.59 in1035.9 mb 0.00 in0.0 mm 0.00 in0.0 mm 0.09 in2.3 mm
07:10 PM 59.0°F15.0°C 49.6°F9.8°C 71% 3.1 mph S5.0 kmh S 4.5 mph7.2 kmh 30.14 in1020.7 mb 0.00 in0.0 mm 0.00 in0.0 mm 0.11 in2.8 mm
07:15 PM 58.5°F14.7°C 49.1°F9.5°C 71% 2.2 mph SSE3.5 kmh SSE 5.4 mph8.7 kmh 30.59 in1035.9 mb 0.00 in0.0 mm 0.00 in0.0 mm 0.09 in2.3 mm
07:30 PM 57.7°F14.3°C 48.8°F9.3°C 72% 2.2 mph SSE3.5 kmh SSE 3.8 mph6.1 kmh 30.59 in1035.9 mb 0.00 in0.0 mm 0.00 in0.0 mm 0.09 in2.3 mm
07:40 PM 57.7°F14.3°C 48.8°F9.3°C 72% 2.2 mph S3.5 kmh S 3.1 mph5.0 kmh 30.15 in1021.0 mb 0.00 in0.0 mm 0.00 in0.0 mm 0.11 in2.8 mm
07:45 PM 57.6°F14.2°C 49.0°F9.4°C 73% 2.2 mph S3.5 kmh S 6.0 mph9.7 kmh 30.59 in1035.9 mb 0.00 in0.0 mm 0.00 in0.0 mm 0.09 in2.3 mm
08:00 PM 57.7°F14.3°C 49.5°F9.7°C 74% 1.6 mph S2.6 kmh S 6.0 mph9.7 kmh 30.59 in1035.9 mb 0.00 in0.0 mm 0.00 in0.0 mm 0.09 in2.3 mm
08:10 PM 57.7°F14.3°C 49.5°F9.7°C 74% 2.2 mph SE3.5 kmh SE 3.8 mph6.1 kmh 30.14 in1020.7 mb 0.00 in0.0 mm 0.00 in0.0 mm 0.11 in2.8 mm
08:15 PM 57.4°F14.1°C 49.2°F9.6°C 74% 2.2 mph S3.5 kmh S 5.4 mph8.7 kmh 30.60 in1036.2 mb 0.00 in0.0 mm 0.00 in0.0 mm 0.09 in2.3 mm
08:30 PM 57.6°F14.2°C 49.7°F9.8°C 75% 1.6 mph S2.6 kmh S 5.4 mph8.7 kmh 30.59 in1035.9 mb 0.00 in0.0 mm 0.00 in0.0 mm 0.09 in2.3 mm
08:40 PM 57.6°F14.2°C 49.7°F9.8°C 75% 1.6 mph SE2.6 kmh SE 2.2 mph3.5 kmh 30.15 in1021.0 mb 0.00 in0.0 mm 0.00 in0.0 mm 0.11 in2.8 mm
08:45 PM 57.0°F13.9°C 49.2°F9.6°C 75% 1.6 mph S2.6 kmh S 3.8 mph6.1 kmh 30.60 in1036.2 mb 0.00 in0.0 mm 0.00 in0.0 mm 0.09 in2.3 mm
09:00 PM 56.5°F13.6°C 49.0°F9.4°C 76% 3.1 mph S5.0 kmh S 5.4 mph8.7 kmh 30.61 in1036.6 mb 0.00 in0.0 mm 0.00 in0.0 mm 0.09 in2.3 mm
09:10 PM 56.5°F13.6°C 49.0°F9.4°C 76% 2.2 mph S3.5 kmh S 3.8 mph6.1 kmh 30.16 in1021.3 mb 0.00 in0.0 mm 0.00 in0.0 mm 0.11 in2.8 mm
09:15 PM 56.5°F13.6°C 49.4°F9.7°C 77% 2.2 mph SSE3.5 kmh SSE 6.0 mph9.7 kmh 30.61 in1036.6 mb 0.00 in0.0 mm 0.00 in0.0 mm 0.09 in2.3 mm
09:30 PM 56.5°F13.6°C 49.4°F9.7°C 77% 2.2 mph SSE3.5 kmh SSE 6.0 mph9.7 kmh 30.61 in1036.6 mb 0.00 in0.0 mm 0.00 in0.0 mm 0.09 in2.3 mm
09:40 PM 56.5°F13.6°C 49.4°F9.7°C 77% 2.2 mph S3.5 kmh S 3.8 mph6.1 kmh 30.16 in1021.3 mb 0.00 in0.0 mm 0.00 in0.0 mm 0.11 in2.8 mm
09:45 PM 56.1°F13.4°C 49.0°F9.4°C 77% 0.7 mph S1.1 kmh S 3.8 mph6.1 kmh 30.61 in1036.6 mb 0.00 in0.0 mm 0.00 in0.0 mm 0.09 in2.3 mm
10:00 PM 55.6°F13.1°C 48.5°F9.2°C 77% 2.2 mph SSE3.5 kmh SSE 4.5 mph7.2 kmh 30.61 in1036.6 mb 0.00 in0.0 mm 0.00 in0.0 mm 0.09 in2.3 mm
10:10 PM 55.6°F13.1°C 48.5°F9.2°C 77% 1.6 mph S2.6 kmh S 1.6 mph2.6 kmh 30.17 in1021.7 mb 0.00 in0.0 mm 0.00 in0.0 mm 0.11 in2.8 mm
10:15 PM 55.0°F12.8°C 48.3°F9.1°C 78% 0.7 mph SE1.1 kmh SE 3.8 mph6.1 kmh 30.62 in1036.9 mb 0.00 in0.0 mm 0.00 in0.0 mm 0.09 in2.3 mm
10:30 PM 54.9°F12.7°C 48.5°F9.2°C 79% 2.2 mph SE3.5 kmh SE 3.8 mph6.1 kmh 30.62 in1036.9 mb 0.00 in0.0 mm 0.00 in0.0 mm 0.09 in2.3 mm
10:40 PM 54.9°F12.7°C 48.5°F9.2°C 79% 1.6 mph SE2.6 kmh SE 2.2 mph3.5 kmh 30.17 in1021.7 mb 0.00 in0.0 mm 0.00 in0.0 mm 0.11 in2.8 mm
10:45 PM 54.9°F12.7°C 48.8°F9.3°C 80% 1.6 mph SSE2.6 kmh SSE 3.1 mph5.0 kmh 30.62 in1036.9 mb 0.00 in0.0 mm 0.00 in0.0 mm 0.09 in2.3 mm
11:00 PM 54.7°F12.6°C 48.6°F9.2°C 80% 1.6 mph S2.6 kmh S 2.2 mph3.5 kmh 30.62 in1036.9 mb 0.00 in0.0 mm 0.00 in0.0 mm 0.07 in1.8 mm
11:10 PM 54.5°F12.5°C 48.5°F9.2°C 80% 1.6 mph S2.6 kmh S 2.2 mph3.5 kmh 30.18 in1022.0 mb 0.00 in0.0 mm 0.00 in0.0 mm 0.07 in1.8 mm
11:15 PM 54.1°F12.3°C 49.1°F9.5°C 83% 1.6 mph S2.6 kmh S 3.1 mph5.0 kmh 30.63 in1037.3 mb 0.00 in0.0 mm 0.00 in0.0 mm 0.07 in1.8 mm
11:30 PM 53.8°F12.1°C 48.7°F9.3°C 83% 0.7 mph SE1.1 kmh SE 3.1 mph5.0 kmh 30.63 in1037.3 mb 0.00 in0.0 mm 0.00 in0.0 mm 0.07 in1.8 mm
11:40 PM 53.6°F12.0°C 48.6°F9.2°C 83% 0.7 mph SE1.1 kmh SE 1.6 mph2.6 kmh 30.18 in1022.0 mb 0.00 in0.0 mm 0.00 in0.0 mm 0.07 in1.8 mm
11:45 PM 53.2°F11.8°C 48.5°F9.2°C 84% 0.7 mph SE1.1 kmh SE 2.2 mph3.5 kmh 30.62 in1036.9 mb 0.00 in0.0 mm 0.00 in0.0 mm 0.07 in1.8 mm